createdAt,value
2018-10-19T00:00:43.172Z,100829.14
2018-10-19T00:03:15.830Z,100827.04
2018-10-19T00:05:50.145Z,100821.00
2018-10-19T00:08:24.397Z,100825.91
2018-10-19T00:10:57.102Z,100821.58
2018-10-19T00:13:33.471Z,100818.34
2018-10-19T00:16:06.170Z,100810.98
2018-10-19T00:18:40.120Z,100807.03
2018-10-19T00:21:14.101Z,100803.28
2018-10-19T00:23:46.434Z,100798.59
2018-10-19T00:26:19.841Z,100796.70
2018-10-19T00:28:52.637Z,100793.47
2018-10-19T00:31:26.787Z,100794.70
2018-10-19T00:33:59.678Z,100791.91
2018-10-19T00:36:32.702Z,100791.69
2018-10-19T00:39:09.231Z,100788.85
2018-10-19T00:41:42.254Z,100786.64
2018-10-19T00:44:15.061Z,100785.11
2018-10-19T00:46:47.812Z,100788.52
2018-10-19T00:49:20.369Z,100788.06
2018-10-19T00:51:54.948Z,100788.06
2018-10-19T00:54:27.982Z,100789.22
2018-10-19T00:57:01.009Z,100787.73
2018-10-19T00:59:35.352Z,100788.78
2018-10-19T01:02:09.293Z,100795.51
2018-10-19T01:04:42.877Z,100790.91
2018-10-19T01:07:23.181Z,100794.42
2018-10-19T01:09:59.424Z,100794.34
2018-10-19T01:12:33.511Z,100792.86
2018-10-19T01:15:14.397Z,100788.20
2018-10-19T01:17:50.059Z,100785.13
2018-10-19T01:20:24.314Z,100782.62
2018-10-19T01:23:00.322Z,100784.88
2018-10-19T01:25:39.965Z,100779.87
2018-10-19T01:28:15.123Z,100779.73
2018-10-19T01:30:48.337Z,100776.66
2018-10-19T01:33:21.045Z,100773.61
2018-10-19T01:35:57.438Z,100777.04
2018-10-19T01:38:30.704Z,100772.87
2018-10-19T01:41:04.921Z,100775.10
2018-10-19T01:43:37.484Z,100774.07
2018-10-19T01:46:10.357Z,100772.23
2018-10-19T01:48:43.087Z,100778.05
2018-10-19T01:51:16.495Z,100779.44
2018-10-19T01:53:49.896Z,100784.62
2018-10-19T01:56:24.834Z,100778.74
2018-10-19T01:58:58.222Z,100779.14
2018-10-19T02:01:32.041Z,100782.52
2018-10-19T02:04:04.830Z,100783.81
2018-10-19T02:06:38.203Z,100785.87
2018-10-19T02:09:11.859Z,100784.66
2018-10-19T02:11:44.869Z,100787.71
2018-10-19T02:14:18.858Z,100790.16
2018-10-19T02:16:52.964Z,100787.19
2018-10-19T02:19:26.524Z,100787.75
2018-10-19T02:21:59.097Z,100789.97
2018-10-19T02:24:34.246Z,100792.16
2018-10-19T02:27:07.571Z,100790.98
2018-10-19T02:29:41.546Z,100790.16
2018-10-19T02:32:18.082Z,100790.19
2018-10-19T02:34:51.381Z,100788.06
2018-10-19T02:37:25.414Z,100788.95
2018-10-19T02:39:58.514Z,100786.19
2018-10-19T02:42:32.372Z,100788.20
2018-10-19T02:45:07.580Z,100783.69
2018-10-19T02:47:41.457Z,100788.16
2018-10-19T02:50:14.018Z,100788.27
2018-10-19T02:52:46.593Z,100786.73
2018-10-19T02:55:20.377Z,100789.77
2018-10-19T02:57:52.995Z,100791.10
2018-10-19T03:00:25.585Z,100790.95
2018-10-19T03:03:01.677Z,100790.28
2018-10-19T03:05:34.217Z,100795.25
2018-10-19T03:08:07.597Z,100796.91
2018-10-19T03:10:42.863Z,100797.83
2018-10-19T03:13:16.789Z,100799.27
2018-10-19T03:15:49.392Z,100798.32
2018-10-19T03:18:22.221Z,100796.50
2018-10-19T03:20:56.309Z,100794.59
2018-10-19T03:23:29.618Z,100795.92
2018-10-19T03:26:08.143Z,100791.48
2018-10-19T03:28:41.493Z,100791.31
2018-10-19T03:31:16.189Z,100790.19
2018-10-19T03:33:49.575Z,100787.73
2018-10-19T03:36:23.398Z,100790.31
2018-10-19T03:38:56.888Z,100790.14
2018-10-19T03:41:29.989Z,100790.54
2018-10-19T03:44:03.594Z,100794.00
2018-10-19T03:46:36.330Z,100799.59
2018-10-19T03:49:11.642Z,100801.87
2018-10-19T03:51:45.525Z,100804.19
2018-10-19T03:54:19.785Z,100810.98
2018-10-19T03:56:53.793Z,100817.52
2018-10-19T03:59:29.461Z,100815.42
2018-10-19T04:02:03.956Z,100816.14
2018-10-19T04:04:37.750Z,100821.16
2018-10-19T04:07:10.460Z,100821.70
2018-10-19T04:09:43.056Z,100818.95
2018-10-19T04:12:20.181Z,100819.09
2018-10-19T04:14:54.053Z,100820.00
2018-10-19T04:17:26.740Z,100816.56
2018-10-19T04:20:00.510Z,100817.88
2018-10-19T04:22:33.158Z,100822.86
2018-10-19T04:25:08.542Z,100821.68
2018-10-19T04:27:43.385Z,100815.03
2018-10-19T04:30:17.468Z,100811.84
2018-10-19T04:32:51.288Z,100812.53
2018-10-19T04:35:27.357Z,100813.74
2018-10-19T04:38:01.049Z,100812.20
2018-10-19T04:40:33.673Z,100805.96
2018-10-19T04:43:06.970Z,100800.21
2018-10-19T04:45:39.626Z,100800.80
2018-10-19T04:48:12.179Z,100804.08
2018-10-19T04:50:44.970Z,100803.25
2018-10-19T04:53:18.481Z,100804.04
2018-10-19T04:55:50.953Z,100800.84
2018-10-19T04:58:25.816Z,100804.77
2018-10-19T05:00:59.157Z,100805.01
2018-10-19T05:03:32.033Z,100809.61
2018-10-19T05:06:07.122Z,100819.14
2018-10-19T05:08:40.012Z,100819.16
2018-10-19T05:11:13.625Z,100815.95
2018-10-19T05:13:46.130Z,100814.64
2018-10-19T05:16:19.609Z,100819.02
2018-10-19T05:18:53.501Z,100819.84
2018-10-19T05:21:26.830Z,100815.46
2018-10-19T05:23:59.489Z,100814.30
2018-10-19T05:26:32.279Z,100812.03
2018-10-19T05:29:08.125Z,100816.73
2018-10-19T05:31:42.641Z,100819.16
2018-10-19T05:34:15.966Z,100816.27
2018-10-19T05:36:50.662Z,100813.72
2018-10-19T05:39:25.166Z,100818.72
2018-10-19T05:41:57.596Z,100819.77
2018-10-19T05:44:32.361Z,100816.72
2018-10-19T05:47:07.489Z,100819.77
2018-10-19T05:49:41.000Z,100820.04
2018-10-19T05:52:14.143Z,100827.30
2018-10-19T05:54:47.066Z,100828.92
2018-10-19T05:57:19.673Z,100829.45
2018-10-19T05:59:54.193Z,100828.97
2018-10-19T06:02:26.906Z,100831.02
2018-10-19T06:04:59.524Z,100829.91
2018-10-19T06:07:32.129Z,100830.78
2018-10-19T06:10:05.846Z,100833.48
2018-10-19T06:12:39.254Z,100828.88
2018-10-19T06:15:14.061Z,100827.36
2018-10-19T06:18:57.063Z,100825.41
2018-10-19T06:21:32.388Z,100832.69
2018-10-19T06:24:08.444Z,100834.22
2018-10-19T06:26:45.080Z,100837.86
2018-10-19T06:29:22.302Z,100840.37
2018-10-19T06:31:55.570Z,100839.69
2018-10-19T06:34:28.919Z,100837.93
2018-10-19T06:37:03.389Z,100841.00
2018-10-19T06:39:36.147Z,100842.67
2018-10-19T06:42:09.496Z,100841.66
2018-10-19T06:44:48.773Z,100844.59
2018-10-19T06:47:23.820Z,100843.27
2018-10-19T06:49:57.888Z,100842.12
2018-10-19T06:52:31.686Z,100842.68
2018-10-19T06:55:07.230Z,100849.42
2018-10-19T06:57:41.673Z,100848.88
2018-10-19T07:00:17.422Z,100850.03
2018-10-19T07:02:49.997Z,100857.30
2018-10-19T07:05:22.703Z,100853.63
2018-10-19T07:07:59.428Z,100852.73
2018-10-19T07:10:32.821Z,100854.20
2018-10-19T07:13:06.465Z,100856.71
2018-10-19T07:15:40.448Z,100861.02
2018-10-19T07:18:14.146Z,100856.63
2018-10-19T07:20:47.407Z,100857.54
2018-10-19T07:23:30.029Z,100855.00
2018-10-19T07:26:03.518Z,100860.06
2018-10-19T07:28:37.664Z,100860.18
2018-10-19T07:31:11.553Z,100858.39
2018-10-19T07:33:45.113Z,100862.11
2018-10-19T07:36:17.818Z,100860.00
2018-10-19T07:41:15.940Z,100850.27
2018-10-19T07:43:48.640Z,100854.43
2018-10-19T07:46:39.313Z,100859.44
2018-10-19T07:49:11.941Z,100865.75
2018-10-19T07:51:44.702Z,100864.34
2018-10-19T07:54:17.617Z,100867.27
2018-10-19T07:56:50.822Z,100868.11
2018-10-19T07:59:24.015Z,100875.14
2018-10-19T08:01:57.700Z,100877.39
2018-10-19T08:04:30.792Z,100875.30
2018-10-19T08:07:07.357Z,100873.58
2018-10-19T08:09:41.417Z,100879.81
2018-10-19T08:12:14.358Z,100881.41
2018-10-19T08:14:46.825Z,100887.13
2018-10-19T08:17:20.416Z,100890.60
2018-10-19T08:19:53.689Z,100885.93
2018-10-19T08:22:32.153Z,100890.06
2018-10-19T08:25:07.896Z,100895.25
2018-10-19T08:27:43.366Z,100893.00
2018-10-19T08:30:16.212Z,100893.22
2018-10-19T08:32:49.232Z,100891.11
2018-10-19T08:35:22.885Z,100891.68
2018-10-19T08:38:02.942Z,100891.44
2018-10-19T08:40:36.539Z,100895.36
2018-10-19T08:43:12.188Z,100896.93
2018-10-19T08:45:49.540Z,100901.45
2018-10-19T08:48:25.710Z,100898.58
2018-10-19T08:50:59.535Z,100898.84
2018-10-19T08:56:10.475Z,100897.63
2018-10-19T08:58:45.611Z,100898.13
2018-10-19T09:01:19.542Z,100902.19
2018-10-19T09:03:53.209Z,100901.47
2018-10-19T09:06:29.557Z,100903.81
2018-10-19T09:09:14.041Z,100901.97
2018-10-19T09:11:46.596Z,100904.41
2018-10-19T09:15:00.731Z,100902.82
2018-10-19T09:17:35.765Z,100897.22
2018-10-19T09:20:10.261Z,100895.79
2018-10-19T09:22:43.689Z,100890.16
2018-10-19T09:25:17.415Z,100888.06
2018-10-19T09:27:50.449Z,100888.42
2018-10-19T09:30:24.097Z,100884.45
2018-10-19T09:32:58.226Z,100885.02
2018-10-19T09:35:30.956Z,100879.69
2018-10-19T09:38:06.286Z,100877.70
2018-10-19T09:40:40.684Z,100881.53
2018-10-19T09:43:13.741Z,100882.97
2018-10-19T09:45:49.212Z,100880.36
2018-10-19T09:48:23.369Z,100882.08
2018-10-19T09:50:56.386Z,100872.98
2018-10-19T09:53:30.662Z,100870.61
2018-10-19T09:56:04.727Z,100870.96
2018-10-19T09:58:39.727Z,100875.13
2018-10-19T10:01:22.724Z,100872.70
2018-10-19T10:04:03.433Z,100876.67
2018-10-19T10:06:38.167Z,100870.05
2018-10-19T10:09:15.175Z,100868.64
2018-10-19T10:11:48.758Z,100869.44
2018-10-19T10:14:22.947Z,100870.08
2018-10-19T10:16:55.608Z,100873.76
2018-10-19T10:19:28.891Z,100870.95
2018-10-19T10:22:04.460Z,100870.98
2018-10-19T10:24:41.783Z,100869.59
2018-10-19T10:27:17.228Z,100865.80
2018-10-19T10:29:53.519Z,100860.59
2018-10-19T10:32:34.089Z,100854.56
2018-10-19T10:35:07.789Z,100856.36
2018-10-19T10:37:47.778Z,100849.59
2018-10-19T10:40:22.570Z,100852.10
2018-10-19T10:42:57.773Z,100850.83
2018-10-19T10:45:47.696Z,100847.59
2018-10-19T10:48:24.591Z,100850.77
2018-10-19T10:51:04.992Z,100848.48
2018-10-19T10:53:44.231Z,100841.53
2018-10-19T10:56:25.482Z,100839.12
2018-10-19T10:59:00.766Z,100841.02
2018-10-19T11:01:35.126Z,100839.63
2018-10-19T11:04:10.661Z,100833.30
2018-10-19T11:06:43.781Z,100824.24
2018-10-19T11:09:17.974Z,100823.44
2018-10-19T11:11:56.104Z,100821.50
2018-10-19T11:14:31.651Z,100818.91
2018-10-19T11:17:04.995Z,100824.77
2018-10-19T11:19:39.161Z,100827.30
2018-10-19T11:22:12.705Z,100827.01
2018-10-19T11:24:46.330Z,100832.28
2018-10-19T11:27:22.722Z,100824.83
2018-10-19T11:30:15.578Z,100825.91
2018-10-19T11:32:58.704Z,100825.58
2018-10-19T11:35:37.219Z,100824.86
2018-10-19T11:38:17.844Z,100829.83
2018-10-19T11:41:01.840Z,100825.77
2018-10-19T11:43:53.258Z,100823.51
2018-10-19T11:46:33.827Z,100823.02
2018-10-19T11:49:13.628Z,100828.21
2018-10-19T11:51:59.502Z,100823.85
2018-10-19T11:54:49.787Z,100823.34
2018-10-19T11:57:24.960Z,100821.36
2018-10-19T12:00:08.533Z,100818.02
2018-10-19T12:02:46.467Z,100814.21
2018-10-19T12:05:23.955Z,100812.92
2018-10-19T12:07:58.700Z,100817.55
2018-10-19T12:10:31.767Z,100812.80
2018-10-19T12:13:07.617Z,100816.17
2018-10-19T12:15:43.520Z,100813.41
2018-10-19T12:18:18.353Z,100812.86
2018-10-19T12:20:55.727Z,100812.12
2018-10-19T12:23:30.841Z,100810.20
2018-10-19T12:26:06.801Z,100816.89
2018-10-19T12:28:41.766Z,100822.37
2018-10-19T12:31:17.955Z,100816.06
2018-10-19T12:33:52.155Z,100815.00
2018-10-19T12:36:27.529Z,100808.88
2018-10-19T12:39:01.141Z,100805.06
2018-10-19T12:41:37.668Z,100801.18
2018-10-19T12:44:11.512Z,100803.61
2018-10-19T12:47:07.956Z,100804.59
2018-10-19T12:49:41.885Z,100798.48
2018-10-19T12:52:23.531Z,100792.45
2018-10-19T12:54:59.633Z,100791.78
2018-10-19T12:57:34.618Z,100791.05
2018-10-19T13:00:09.645Z,100788.75
2018-10-19T13:02:43.608Z,100782.23
2018-10-19T13:05:16.786Z,100781.12
2018-10-19T13:07:49.345Z,100782.52
2018-10-19T13:10:21.931Z,100786.30
2018-10-19T13:12:56.988Z,100779.39
2018-10-19T13:15:31.854Z,100782.86
2018-10-19T13:18:05.664Z,100778.14
2018-10-19T13:20:39.285Z,100780.50
2018-10-19T13:23:11.810Z,100778.81
2018-10-19T13:25:46.638Z,100778.00
2018-10-19T13:28:20.661Z,100773.02
2018-10-19T13:30:53.523Z,100775.72
2018-10-19T13:33:27.040Z,100775.52
2018-10-19T13:36:04.040Z,100776.73
2018-10-19T13:38:36.708Z,100777.34
2018-10-19T13:41:15.078Z,100777.34
2018-10-19T13:43:47.584Z,100774.91
2018-10-19T13:46:21.701Z,100773.25
2018-10-19T13:48:55.866Z,100773.74
2018-10-19T13:51:29.827Z,100777.00
2018-10-19T13:54:07.503Z,100773.52
2018-10-19T13:56:42.808Z,100768.50
2018-10-19T13:59:18.088Z,100762.13
2018-10-19T14:01:52.777Z,100759.52
2018-10-19T14:04:26.678Z,100755.05
2018-10-19T14:07:02.449Z,100753.02
2018-10-19T14:09:35.993Z,100753.16
2018-10-19T14:12:09.639Z,100752.55
2018-10-19T14:14:43.686Z,100752.88
2018-10-19T14:17:18.090Z,100750.31
2018-10-19T14:19:53.290Z,100749.05
2018-10-19T14:22:26.800Z,100748.22
2018-10-19T14:24:59.422Z,100744.05
2018-10-19T14:27:32.989Z,100744.38
2018-10-19T14:30:13.829Z,100745.41
2018-10-19T14:32:47.350Z,100744.87
2018-10-19T14:35:21.782Z,100749.42
2018-10-19T14:37:54.536Z,100743.39
2018-10-19T14:40:27.237Z,100745.82
2018-10-19T14:43:03.498Z,100749.36
2018-10-19T14:45:37.093Z,100751.34
2018-10-19T14:48:11.749Z,100747.90
2018-10-19T14:50:44.257Z,100747.82
2018-10-19T14:53:21.886Z,100745.48
2018-10-19T14:55:56.308Z,100747.09
2018-10-19T14:58:29.274Z,100740.52
2018-10-19T15:01:04.619Z,100743.09
2018-10-19T15:03:38.617Z,100735.80
2018-10-19T15:06:13.351Z,100736.38
2018-10-19T15:08:47.714Z,100740.67
2018-10-19T15:11:21.722Z,100745.90
2018-10-19T15:13:55.686Z,100748.84
2018-10-19T15:16:30.490Z,100745.96
2018-10-19T15:19:03.684Z,100749.36
2018-10-19T15:21:41.486Z,100753.41
2018-10-19T15:24:14.308Z,100753.80
2018-10-19T15:26:46.734Z,100750.92
2018-10-19T15:29:20.756Z,100755.79
2018-10-19T15:31:58.393Z,100757.62
2018-10-19T15:34:34.694Z,100760.95
2018-10-19T15:37:12.654Z,100761.08
2018-10-19T15:39:46.183Z,100768.16
2018-10-19T15:42:20.296Z,100771.08
2018-10-19T15:44:55.051Z,100780.26
2018-10-19T15:47:33.459Z,100778.78
2018-10-19T15:50:10.913Z,100777.98
2018-10-19T15:52:43.752Z,100784.05
2018-10-19T15:55:17.367Z,100786.58
2018-10-19T15:57:50.963Z,100786.68
2018-10-19T16:00:23.791Z,100784.11
2018-10-19T16:02:58.101Z,100792.47
2018-10-19T16:05:30.706Z,100794.73
2018-10-19T16:08:03.278Z,100792.42
2018-10-19T16:10:36.928Z,100794.62
2018-10-19T16:13:09.984Z,100796.82
2018-10-19T16:15:44.212Z,100798.19
2018-10-19T16:18:20.541Z,100804.80
2018-10-19T16:20:54.395Z,100800.67
2018-10-19T16:23:27.659Z,100806.35
2018-10-19T16:26:00.341Z,100804.97
2018-10-19T16:28:34.733Z,100804.01
2018-10-19T16:31:08.275Z,100811.16
2018-10-19T16:33:41.922Z,100807.22
2018-10-19T16:36:15.540Z,100810.49
2018-10-19T16:38:48.330Z,100816.29
2018-10-19T16:41:23.655Z,100818.37
2018-10-19T16:44:05.353Z,100824.19
2018-10-19T16:46:42.069Z,100826.95
2018-10-19T16:49:14.613Z,100826.89
2018-10-19T16:51:47.498Z,100827.61
2018-10-19T16:54:21.586Z,100827.52
2018-10-19T16:56:55.050Z,100831.13
2018-10-19T16:59:31.789Z,100827.02
2018-10-19T17:02:06.985Z,100833.44
2018-10-19T17:04:39.691Z,100829.18
2018-10-19T17:07:17.487Z,100828.34
2018-10-19T17:09:53.844Z,100831.25
2018-10-19T17:12:28.813Z,100829.14
2018-10-19T17:15:12.659Z,100825.59
2018-10-19T17:17:46.596Z,100829.15
2018-10-19T17:20:19.909Z,100839.35
2018-10-19T17:22:56.931Z,100847.83
2018-10-19T17:25:31.535Z,100853.36
2018-10-19T17:28:07.165Z,100866.40
2018-10-19T17:30:42.826Z,100868.17
2018-10-19T17:33:15.443Z,100874.59
2018-10-19T17:35:48.130Z,100877.05
2018-10-19T17:38:22.439Z,100881.95
2018-10-19T17:40:58.514Z,100889.24
2018-10-19T17:43:33.444Z,100891.30
2018-10-19T17:46:08.703Z,100892.16
2018-10-19T17:48:45.747Z,100891.25
2018-10-19T17:51:20.881Z,100891.62
2018-10-19T17:53:56.423Z,100895.20
2018-10-19T17:56:29.162Z,100899.23
2018-10-19T17:59:03.980Z,100904.91
2018-10-19T18:01:39.326Z,100906.77
2018-10-19T18:04:33.432Z,100912.31
2018-10-19T18:07:16.727Z,100916.05
2018-10-19T18:09:52.794Z,100919.87
2018-10-19T18:12:25.818Z,100919.39
2018-10-19T18:15:02.817Z,100918.76
2018-10-19T18:17:43.823Z,100920.30
2018-10-19T18:20:18.013Z,100920.77
2018-10-19T18:22:54.338Z,100916.97
2018-10-19T18:25:32.434Z,100927.98
2018-10-19T18:28:07.135Z,100930.64
2018-10-19T18:30:41.891Z,100932.31
2018-10-19T18:33:15.470Z,100934.12
2018-10-19T18:35:56.434Z,100936.17
2018-10-19T18:38:32.095Z,100944.00
2018-10-19T18:41:06.734Z,100942.95
2018-10-19T18:43:39.765Z,100943.09
2018-10-19T18:46:13.473Z,100941.66
2018-10-19T18:48:47.412Z,100935.73
2018-10-19T18:51:20.447Z,100940.72
2018-10-19T18:53:56.057Z,100947.67
2018-10-19T18:56:31.557Z,100948.25
2018-10-19T18:59:06.700Z,100950.69
2018-10-19T19:01:43.623Z,100951.81
2018-10-19T19:04:17.786Z,100957.41
2018-10-19T19:06:52.417Z,100956.73
2018-10-19T19:09:25.926Z,100956.92
2018-10-19T19:11:59.893Z,100953.70
2018-10-19T19:14:32.588Z,100954.55
2018-10-19T19:17:07.500Z,100960.03
2018-10-19T19:20:05.988Z,100963.94
2018-10-19T19:22:57.099Z,100958.63
2018-10-19T19:25:38.898Z,100964.57
2018-10-19T19:28:15.449Z,100962.57
2018-10-19T19:30:48.862Z,100961.52
2018-10-19T19:33:28.340Z,100964.02
2018-10-19T19:36:02.370Z,100967.89
2018-10-19T19:38:36.079Z,100971.03
2018-10-19T19:41:17.017Z,100977.41
2018-10-19T19:43:50.614Z,100980.63
2018-10-19T19:46:24.451Z,100975.69
2018-10-19T19:49:10.707Z,100962.32
2018-10-19T19:51:46.523Z,100959.59
2018-10-19T19:54:21.469Z,100966.97
2018-10-19T19:56:55.310Z,100977.14
2018-10-19T19:59:28.696Z,100980.15
2018-10-19T20:02:02.178Z,100971.43
2018-10-19T20:04:38.011Z,100982.32
2018-10-19T20:07:13.360Z,100985.05
2018-10-19T20:09:47.253Z,100984.31
2018-10-19T20:12:21.590Z,100989.25
2018-10-19T20:14:55.529Z,100978.44
2018-10-19T20:17:38.234Z,100980.92
2018-10-19T20:20:13.926Z,100991.12
2018-10-19T20:22:52.785Z,100986.18
2018-10-19T20:25:29.651Z,100984.49
2018-10-19T20:28:04.955Z,100984.78
2018-10-19T20:30:39.940Z,100982.42
2018-10-19T20:33:15.314Z,100979.43
2018-10-19T20:35:50.663Z,100981.78
2018-10-19T20:38:27.328Z,100987.36
2018-10-19T20:41:03.396Z,100995.94
2018-10-19T20:43:37.597Z,100984.73
2018-10-19T20:46:20.833Z,100978.72
2018-10-19T20:48:55.849Z,100974.66
2018-10-19T20:51:31.811Z,100979.80
2018-10-19T20:54:06.982Z,100993.67
2018-10-19T20:56:41.435Z,101003.09
2018-10-19T20:59:19.080Z,101006.27
2018-10-19T21:01:53.288Z,101009.25
2018-10-19T21:04:29.361Z,101002.52
2018-10-19T21:07:03.252Z,101008.27
2018-10-19T21:09:36.655Z,101015.06
2018-10-19T21:12:12.245Z,101010.57
2018-10-19T21:14:46.713Z,101014.38
2018-10-19T21:17:20.110Z,101018.30
2018-10-19T21:19:53.849Z,101017.77
2018-10-19T21:22:28.872Z,101017.88
2018-10-19T21:25:01.659Z,101021.34
2018-10-19T21:27:35.473Z,101025.55
2018-10-19T21:30:13.954Z,101014.88
2018-10-19T21:32:47.654Z,101015.36
2018-10-19T21:35:21.428Z,101014.66
2018-10-19T21:37:58.050Z,101015.49
2018-10-19T21:40:32.482Z,101021.70
2018-10-19T21:43:08.306Z,101028.08
2018-10-19T21:45:42.304Z,101019.51
2018-10-19T21:48:15.581Z,101022.94
2018-10-19T21:50:54.349Z,101029.02
2018-10-19T21:53:28.483Z,101031.80
2018-10-19T21:56:03.669Z,101030.14
2018-10-19T21:58:43.140Z,101034.30
2018-10-19T22:01:17.142Z,101036.29
2018-10-19T22:03:53.829Z,101036.13
2018-10-19T22:06:26.566Z,101035.81
2018-10-19T22:09:01.613Z,101033.63
2018-10-19T22:11:35.967Z,101042.02
2018-10-19T22:14:12.750Z,101044.43
2018-10-19T22:16:54.470Z,101044.58
2018-10-19T22:19:27.533Z,101051.68
2018-10-19T22:22:00.947Z,101051.55
2018-10-19T22:24:38.606Z,101055.81
2018-10-19T22:27:20.533Z,101060.58
2018-10-19T22:29:54.752Z,101066.12
2018-10-19T22:32:28.589Z,101069.87
2018-10-19T22:35:03.113Z,101072.25
2018-10-19T22:37:37.775Z,101073.98
2018-10-19T22:40:11.191Z,101079.20
2018-10-19T22:42:45.801Z,101077.95
2018-10-19T22:45:18.505Z,101075.78
2018-10-19T22:47:51.398Z,101080.00
2018-10-19T22:50:26.298Z,101077.23
2018-10-19T22:52:59.034Z,101073.67
2018-10-19T22:55:32.293Z,101070.98
2018-10-19T22:58:05.847Z,101078.44
2018-10-19T23:00:40.297Z,101081.74
2018-10-19T23:03:13.216Z,101084.80
2018-10-19T23:05:46.969Z,101084.27
2018-10-19T23:08:19.533Z,101093.93
2018-10-19T23:10:55.011Z,101099.98
2018-10-19T23:13:29.149Z,101099.55
2018-10-19T23:16:04.114Z,101099.57
2018-10-19T23:18:38.843Z,101100.39
2018-10-19T23:21:12.583Z,101109.94
2018-10-19T23:23:46.175Z,101115.27
2018-10-19T23:26:18.805Z,101113.49
2018-10-19T23:28:52.604Z,101105.55
2018-10-19T23:31:26.048Z,101106.92
2018-10-19T23:33:58.557Z,101106.88
2018-10-19T23:36:31.711Z,101108.46
2018-10-19T23:39:07.508Z,101113.25
2018-10-19T23:41:40.627Z,101114.70
2018-10-19T23:44:13.560Z,101115.59
2018-10-19T23:46:46.142Z,101108.72
2018-10-19T23:49:19.710Z,101101.86
2018-10-19T23:51:53.329Z,101101.48
2018-10-19T23:54:26.202Z,101096.19
2018-10-19T23:56:58.920Z,101095.45
2018-10-19T23:59:32.064Z,101099.13
